createdAt,value
2023-04-04T00:00:40.277Z,23.00
2023-04-04T00:03:07.894Z,23.00
2023-04-04T00:05:36.145Z,23.00
2023-04-04T00:08:04.171Z,22.90
2023-04-04T00:10:31.502Z,22.90
2023-04-04T00:12:59.259Z,22.90
2023-04-04T00:15:26.473Z,22.90
2023-04-04T00:17:53.579Z,22.90
2023-04-04T00:20:20.807Z,22.90
2023-04-04T00:22:47.774Z,22.90
2023-04-04T00:25:15.305Z,22.90
2023-04-04T00:27:45.306Z,22.80
2023-04-04T00:30:13.247Z,22.80
2023-04-04T00:32:40.798Z,22.80
2023-04-04T00:35:09.176Z,22.80
2023-04-04T00:37:36.310Z,22.80
2023-04-04T00:40:04.539Z,22.70
2023-04-04T00:42:34.294Z,22.70
2023-04-04T00:45:01.554Z,22.70
2023-04-04T00:47:31.754Z,22.70
2023-04-04T00:49:58.805Z,22.70
2023-04-04T00:52:26.186Z,22.70
2023-04-04T00:54:56.615Z,22.70
2023-04-04T00:57:24.635Z,22.70
2023-04-04T00:59:52.202Z,22.70
2023-04-04T01:02:19.376Z,22.70
2023-04-04T01:04:47.493Z,22.60
2023-04-04T01:07:14.929Z,22.60
2023-04-04T01:09:42.126Z,22.60
2023-04-04T01:12:09.852Z,22.60
2023-04-04T01:14:36.860Z,22.60
2023-04-04T01:17:05.247Z,22.60
2023-04-04T01:19:53.804Z,22.60
2023-04-04T01:22:23.165Z,22.60
2023-04-04T01:24:51.876Z,22.50
2023-04-04T01:27:19.166Z,22.50
2023-04-04T01:29:46.170Z,22.50
2023-04-04T01:32:42.062Z,22.40
2023-04-04T01:35:42.901Z,22.50
2023-04-04T01:39:00.024Z,22.50
2023-04-04T01:41:33.324Z,22.50
2023-04-04T01:44:03.446Z,22.50
2023-04-04T01:46:31.497Z,22.40
2023-04-04T01:48:58.818Z,22.40
2023-04-04T01:51:26.078Z,22.40
2023-04-04T01:53:53.108Z,22.40
2023-04-04T01:56:20.181Z,22.40
2023-04-04T01:58:47.496Z,22.40
2023-04-04T02:01:14.825Z,22.40
2023-04-04T02:03:42.679Z,22.40
2023-04-04T02:06:09.796Z,22.30
2023-04-04T02:08:38.412Z,22.30
2023-04-04T02:11:05.632Z,22.30
2023-04-04T02:13:32.677Z,22.30
2023-04-04T02:15:59.925Z,22.30
2023-04-04T02:18:29.823Z,22.30
2023-04-04T02:20:57.736Z,22.30
2023-04-04T02:23:24.933Z,22.30
2023-04-04T02:25:52.237Z,22.20
2023-04-04T02:28:19.780Z,22.20
2023-04-04T02:30:47.163Z,22.20
2023-04-04T02:33:14.285Z,22.30
2023-04-04T02:35:44.105Z,22.20
2023-04-04T02:38:11.361Z,22.20
2023-04-04T02:40:40.172Z,22.20
2023-04-04T02:43:07.539Z,22.20
2023-04-04T02:45:34.510Z,22.20
2023-04-04T02:48:02.328Z,22.20
2023-04-04T02:50:29.416Z,22.20
2023-04-04T02:53:03.469Z,22.10
2023-04-04T02:55:31.045Z,22.10
2023-04-04T02:57:58.271Z,22.10
2023-04-04T03:00:25.641Z,22.10
2023-04-04T03:02:57.884Z,22.10
2023-04-04T03:05:27.375Z,22.10
2023-04-04T03:07:58.412Z,22.10
2023-04-04T03:10:27.427Z,22.10
2023-04-04T03:12:54.393Z,22.10
2023-04-04T03:15:21.746Z,22.10
2023-04-04T03:17:48.959Z,22.00
2023-04-04T03:20:16.378Z,22.10
2023-04-04T03:22:43.347Z,22.00
2023-04-04T03:25:11.070Z,22.00
2023-04-04T03:27:39.788Z,22.00
2023-04-04T03:30:09.266Z,22.00
2023-04-04T03:32:39.609Z,22.00
2023-04-04T03:35:08.016Z,22.00
2023-04-04T03:37:35.669Z,22.00
2023-04-04T03:40:02.716Z,22.00
2023-04-04T03:42:36.702Z,22.00
2023-04-04T03:45:03.946Z,22.00
2023-04-04T03:47:31.121Z,21.90
2023-04-04T03:49:58.285Z,21.90
2023-04-04T03:52:25.444Z,21.90
2023-04-04T03:54:52.425Z,21.90
2023-04-04T03:57:19.929Z,21.90
2023-04-04T03:59:47.132Z,21.90
2023-04-04T04:02:14.171Z,21.90
2023-04-04T04:04:44.577Z,21.90
2023-04-04T04:07:12.046Z,21.80
2023-04-04T04:09:38.974Z,21.90
2023-04-04T04:12:06.376Z,21.80
2023-04-04T04:14:35.132Z,21.80
2023-04-04T04:17:02.321Z,21.80
2023-04-04T04:19:29.216Z,21.80
2023-04-04T04:21:56.296Z,21.80
2023-04-04T04:24:23.413Z,21.80
2023-04-04T04:26:50.516Z,21.80
2023-04-04T04:29:17.597Z,21.80
2023-04-04T04:31:44.611Z,21.80
2023-04-04T04:34:11.669Z,21.80
2023-04-04T04:36:38.683Z,21.80
2023-04-04T04:39:05.800Z,21.80
2023-04-04T04:41:32.898Z,21.80
2023-04-04T04:44:00.161Z,21.80
2023-04-04T04:46:27.322Z,21.70
2023-04-04T04:48:54.573Z,21.70
2023-04-04T04:51:21.699Z,21.70
2023-04-04T04:53:48.853Z,21.70
2023-04-04T04:56:15.914Z,21.70
2023-04-04T04:58:45.073Z,21.70
2023-04-04T05:01:12.268Z,21.70
2023-04-04T05:03:39.616Z,21.70
2023-04-04T05:06:07.134Z,21.70
2023-04-04T05:08:34.258Z,21.70
2023-04-04T05:11:01.826Z,21.70
2023-04-04T05:13:30.390Z,21.60
2023-04-04T05:16:00.409Z,21.70
2023-04-04T05:18:27.556Z,21.70
2023-04-04T05:20:55.513Z,21.60
2023-04-04T05:23:23.181Z,21.60
2023-04-04T05:25:51.726Z,21.60
2023-04-04T05:28:22.992Z,21.60
2023-04-04T05:30:50.285Z,21.60
2023-04-04T05:33:17.396Z,21.60
2023-04-04T05:35:44.416Z,21.60
2023-04-04T05:38:11.677Z,21.60
2023-04-04T05:40:40.540Z,21.60
2023-04-04T05:43:09.461Z,21.60
2023-04-04T05:45:37.419Z,21.60
2023-04-04T05:48:05.628Z,21.70
2023-04-04T05:50:32.694Z,21.80
2023-04-04T05:52:59.890Z,21.90
2023-04-04T05:55:28.321Z,22.10
2023-04-04T05:57:56.798Z,22.20
2023-04-04T06:00:23.794Z,22.40
2023-04-04T06:02:51.614Z,22.50
2023-04-04T06:05:19.500Z,22.70
2023-04-04T06:07:46.707Z,22.90
2023-04-04T06:10:15.348Z,23.00
2023-04-04T06:12:42.458Z,23.10
2023-04-04T06:15:10.000Z,23.20
2023-04-04T06:17:37.138Z,23.40
2023-04-04T06:20:05.133Z,23.50
2023-04-04T06:22:32.319Z,23.70
2023-04-04T06:24:59.260Z,23.80
2023-04-04T06:27:29.651Z,24.00
2023-04-04T06:29:57.904Z,24.10
2023-04-04T06:32:26.078Z,24.10
2023-04-04T06:34:53.606Z,24.30
2023-04-04T06:37:20.646Z,24.40
2023-04-04T06:39:47.869Z,24.50
2023-04-04T06:42:14.884Z,24.50
2023-04-04T06:44:41.907Z,24.60
2023-04-04T06:47:09.088Z,24.70
2023-04-04T06:49:36.222Z,24.90
2023-04-04T06:52:04.018Z,24.90
2023-04-04T06:54:31.954Z,25.00
2023-04-04T06:56:59.081Z,25.10
2023-04-04T06:59:26.127Z,25.10
2023-04-04T07:01:53.225Z,25.10
2023-04-04T07:04:20.535Z,25.20
2023-04-04T07:06:47.672Z,25.20
2023-04-04T07:09:25.810Z,25.20
2023-04-04T07:11:53.276Z,25.30
2023-04-04T07:14:25.241Z,25.30
2023-04-04T07:16:53.401Z,25.20
2023-04-04T07:19:20.800Z,25.20
2023-04-04T07:21:48.336Z,25.30
2023-04-04T07:24:15.344Z,25.20
2023-04-04T07:26:42.553Z,25.20
2023-04-04T07:29:09.837Z,25.30
2023-04-04T07:31:36.884Z,25.20
2023-04-04T07:34:04.419Z,25.20
2023-04-04T07:36:31.620Z,25.20
2023-04-04T07:38:59.037Z,25.20
2023-04-04T07:41:26.663Z,25.20
2023-04-04T07:43:53.738Z,25.20
2023-04-04T07:46:21.075Z,25.20
2023-04-04T07:48:48.736Z,25.20
2023-04-04T07:51:16.108Z,25.20
2023-04-04T07:53:43.044Z,25.20
2023-04-04T07:56:10.022Z,25.20
2023-04-04T07:58:36.977Z,25.20
2023-04-04T08:01:04.324Z,25.20
2023-04-04T08:03:31.488Z,25.20
2023-04-04T08:05:58.744Z,25.20
2023-04-04T08:08:26.197Z,25.30
2023-04-04T08:10:53.961Z,25.30
2023-04-04T08:13:21.088Z,25.30
2023-04-04T08:15:48.210Z,25.20
2023-04-04T08:18:15.563Z,25.20
2023-04-04T08:20:42.647Z,25.30
2023-04-04T08:23:10.032Z,25.30
2023-04-04T08:25:37.264Z,25.30
2023-04-04T08:28:05.682Z,25.40
2023-04-04T08:30:33.246Z,25.40
2023-04-04T08:33:00.766Z,25.50
2023-04-04T08:35:28.262Z,25.40
2023-04-04T08:37:55.730Z,25.50
2023-04-04T08:40:23.131Z,25.50
2023-04-04T08:42:52.014Z,25.50
2023-04-04T08:45:19.588Z,25.60
2023-04-04T08:47:50.571Z,25.60
2023-04-04T08:50:19.682Z,25.50
2023-04-04T08:52:47.963Z,25.60
2023-04-04T08:55:16.074Z,25.60
2023-04-04T08:57:43.679Z,25.60
2023-04-04T09:00:11.750Z,25.60
2023-04-04T09:03:11.020Z,25.60
2023-04-04T09:05:38.568Z,25.60
2023-04-04T09:08:08.719Z,25.60
2023-04-04T09:10:38.038Z,25.60
2023-04-04T09:13:15.586Z,25.60
2023-04-04T09:15:52.053Z,25.60
2023-04-04T09:18:19.325Z,25.60
2023-04-04T09:20:50.521Z,25.60
2023-04-04T09:23:21.017Z,25.60
2023-04-04T09:28:22.217Z,25.60
2023-04-04T09:30:53.990Z,25.60
2023-04-04T09:33:26.752Z,25.70
2023-04-04T09:36:07.259Z,25.70
2023-04-04T09:38:39.687Z,25.70
2023-04-04T09:41:09.919Z,25.70
2023-04-04T09:43:39.616Z,25.70
2023-04-04T09:46:08.049Z,25.70
2023-04-04T09:48:37.032Z,25.80
2023-04-04T09:51:12.168Z,25.80
2023-04-04T09:53:42.304Z,25.80
2023-04-04T09:56:09.878Z,25.80
2023-04-04T09:58:46.312Z,25.80
2023-04-04T10:01:20.317Z,25.80
2023-04-04T10:03:55.354Z,25.80
2023-04-04T10:06:24.230Z,25.90
2023-04-04T10:08:51.954Z,25.80
2023-04-04T10:11:34.299Z,25.80
2023-04-04T10:14:05.527Z,25.80
2023-04-04T10:16:35.043Z,25.80
2023-04-04T10:19:04.768Z,25.90
2023-04-04T10:21:32.240Z,25.90
2023-04-04T10:24:02.279Z,25.90
2023-04-04T10:26:31.047Z,25.90
2023-04-04T10:28:58.317Z,26.00
2023-04-04T10:31:26.375Z,26.00
2023-04-04T10:34:20.919Z,26.00
2023-04-04T10:37:21.367Z,26.10
2023-04-04T10:40:10.166Z,26.20
2023-04-04T10:42:47.216Z,26.20
2023-04-04T10:45:20.966Z,26.30
2023-04-04T10:47:50.732Z,26.30
2023-04-04T10:50:20.734Z,26.40
2023-04-04T10:52:48.735Z,26.40
2023-04-04T10:55:17.275Z,26.50
2023-04-04T10:57:50.932Z,26.60
2023-04-04T11:00:20.506Z,26.60
2023-04-04T11:03:00.407Z,26.70
2023-04-04T11:05:42.503Z,26.80
2023-04-04T11:08:14.302Z,26.90
2023-04-04T11:10:47.932Z,26.90
2023-04-04T11:13:25.700Z,27.10
2023-04-04T11:16:10.087Z,27.20
2023-04-04T11:18:40.434Z,27.30
2023-04-04T11:21:24.845Z,26.30
2023-04-04T11:23:54.783Z,27.60
2023-04-04T11:26:28.267Z,27.70
2023-04-04T11:29:04.167Z,27.90
2023-04-04T11:31:40.389Z,28.00
2023-04-04T11:34:11.377Z,28.20
2023-04-04T11:36:38.988Z,28.30
2023-04-04T11:39:21.335Z,28.50
2023-04-04T11:42:12.155Z,28.60
2023-04-04T11:44:48.883Z,28.80
2023-04-04T11:47:20.191Z,28.90
2023-04-04T11:49:48.074Z,29.00
2023-04-04T11:52:21.181Z,29.20
2023-04-04T11:54:49.390Z,29.30
2023-04-04T11:57:22.105Z,29.50
2023-04-04T11:59:51.638Z,29.50
2023-04-04T12:02:34.901Z,29.60
2023-04-04T12:05:03.076Z,29.80
2023-04-04T12:07:30.518Z,29.80
2023-04-04T12:09:58.955Z,29.90
2023-04-04T12:12:28.512Z,30.00
2023-04-04T12:15:06.291Z,30.10
2023-04-04T12:17:43.500Z,30.20
2023-04-04T12:20:11.591Z,30.30
2023-04-04T12:22:38.664Z,30.30
2023-04-04T12:25:06.737Z,30.40
2023-04-04T12:27:34.962Z,30.50
2023-04-04T12:30:04.277Z,30.60
2023-04-04T12:32:32.154Z,30.70
2023-04-04T12:35:03.855Z,30.80
2023-04-04T12:37:31.895Z,30.90
2023-04-04T12:40:01.698Z,31.00
2023-04-04T12:42:32.095Z,31.10
2023-04-04T12:45:04.267Z,31.10
2023-04-04T12:47:33.147Z,31.20
2023-04-04T12:50:00.816Z,31.30
2023-04-04T12:52:33.520Z,31.30
2023-04-04T12:55:12.966Z,31.30
2023-04-04T12:57:40.737Z,31.50
2023-04-04T13:00:09.613Z,31.60
2023-04-04T13:02:39.316Z,31.60
2023-04-04T13:05:10.313Z,31.70
2023-04-04T13:07:44.802Z,31.70
2023-04-04T13:10:16.516Z,31.80
2023-04-04T13:13:00.706Z,31.90
2023-04-04T13:15:52.945Z,31.90
2023-04-04T13:18:26.590Z,31.90
2023-04-04T13:20:55.318Z,31.90
2023-04-04T13:23:24.236Z,32.00
2023-04-04T13:25:52.010Z,32.00
2023-04-04T13:28:19.253Z,32.00
2023-04-04T13:30:49.920Z,31.90
2023-04-04T13:33:22.587Z,31.90
2023-04-04T13:35:51.725Z,31.30
2023-04-04T13:38:19.132Z,31.70
2023-04-04T13:40:48.908Z,31.60
2023-04-04T13:43:16.734Z,31.50
2023-04-04T13:45:46.839Z,31.50
2023-04-04T13:48:14.471Z,31.40
2023-04-04T13:50:51.319Z,31.30
2023-04-04T13:53:19.061Z,31.20
2023-04-04T13:58:20.223Z,31.00
2023-04-04T14:00:49.746Z,30.80
2023-04-04T14:03:18.603Z,30.70
2023-04-04T14:05:45.948Z,30.60
2023-04-04T14:08:14.828Z,30.50
2023-04-04T14:10:42.036Z,30.30
2023-04-04T14:13:12.182Z,30.20
2023-04-04T14:15:40.911Z,30.10
2023-04-04T14:18:08.497Z,30.00
2023-04-04T14:20:39.099Z,29.90
2023-04-04T14:23:06.346Z,29.80
2023-04-04T14:25:35.088Z,31.30
2023-04-04T14:28:02.189Z,29.60
2023-04-04T14:30:29.563Z,29.60
2023-04-04T14:32:56.941Z,29.50
2023-04-04T14:35:24.317Z,29.50
2023-04-04T14:37:51.555Z,29.40
2023-04-04T14:40:18.695Z,29.40
2023-04-04T14:42:45.633Z,29.40
2023-04-04T14:45:12.880Z,29.30
2023-04-04T14:47:41.036Z,29.20
2023-04-04T14:50:09.230Z,29.20
2023-04-04T14:52:36.691Z,29.20
2023-04-04T14:55:04.689Z,29.20
2023-04-04T14:57:39.375Z,29.20
2023-04-04T15:00:16.123Z,29.20
2023-04-04T15:02:43.648Z,29.10
2023-04-04T15:05:11.876Z,29.10
2023-04-04T15:07:39.107Z,29.00
2023-04-04T15:10:08.240Z,28.90
2023-04-04T15:12:35.449Z,28.90
2023-04-04T15:15:02.498Z,28.80
2023-04-04T15:17:29.553Z,28.80
2023-04-04T15:19:56.614Z,28.80
2023-04-04T15:22:23.601Z,28.80
2023-04-04T15:24:50.559Z,28.70
2023-04-04T15:27:17.773Z,28.70
2023-04-04T15:29:44.856Z,28.70
2023-04-04T15:32:12.011Z,28.70
2023-04-04T15:34:39.107Z,28.70
2023-04-04T15:37:06.356Z,28.60
2023-04-04T15:39:42.642Z,28.60
2023-04-04T15:42:17.209Z,28.60
2023-04-04T15:44:44.738Z,28.60
2023-04-04T15:47:11.936Z,28.50
2023-04-04T15:49:39.010Z,28.50
2023-04-04T15:52:06.271Z,28.40
2023-04-04T15:54:33.453Z,28.40
2023-04-04T15:57:01.936Z,28.40
2023-04-04T15:59:31.900Z,28.30
2023-04-04T16:01:59.945Z,28.20
2023-04-04T16:04:26.920Z,28.20
2023-04-04T16:06:54.511Z,28.10
2023-04-04T16:09:21.568Z,28.00
2023-04-04T16:11:49.063Z,27.90
2023-04-04T16:14:16.258Z,27.90
2023-04-04T16:16:43.633Z,27.80
2023-04-04T16:19:14.340Z,27.80
2023-04-04T16:21:41.841Z,27.70
2023-04-04T16:24:09.546Z,27.70
2023-04-04T16:26:36.903Z,27.60
2023-04-04T16:29:03.970Z,27.50
2023-04-04T16:31:32.277Z,27.50
2023-04-04T16:33:59.651Z,27.40
2023-04-04T16:36:27.619Z,27.30
2023-04-04T16:38:55.159Z,27.30
2023-04-04T16:41:22.261Z,27.20
2023-04-04T16:43:52.863Z,27.20
2023-04-04T16:46:20.211Z,27.10
2023-04-04T16:48:47.360Z,27.10
2023-04-04T16:51:14.436Z,27.00
2023-04-04T16:53:41.536Z,26.90
2023-04-04T16:56:09.039Z,26.90
2023-04-04T16:58:36.355Z,26.80
2023-04-04T17:01:03.923Z,26.80
2023-04-04T17:03:31.349Z,26.70
2023-04-04T17:06:00.324Z,26.60
2023-04-04T17:08:28.057Z,26.60
2023-04-04T17:10:55.394Z,26.50
2023-04-04T17:13:22.397Z,26.50
2023-04-04T17:15:49.595Z,26.40
2023-04-04T17:18:17.143Z,26.40
2023-04-04T17:20:44.389Z,26.30
2023-04-04T17:23:11.662Z,26.20
2023-04-04T17:25:38.722Z,26.20
2023-04-04T17:28:06.344Z,26.10
2023-04-04T17:30:33.352Z,26.00
2023-04-04T17:33:00.519Z,26.00
2023-04-04T17:35:30.885Z,25.90
2023-04-04T17:37:57.920Z,25.90
2023-04-04T17:40:24.948Z,25.90
2023-04-04T17:42:52.023Z,25.80
2023-04-04T17:45:19.819Z,25.80
2023-04-04T17:47:47.040Z,25.80
2023-04-04T17:50:14.490Z,25.70
2023-04-04T17:52:41.845Z,25.70
2023-04-04T17:55:09.532Z,25.70
2023-04-04T17:57:36.769Z,25.60
2023-04-04T18:00:04.594Z,25.60
2023-04-04T18:02:31.643Z,25.40
2023-04-04T18:04:58.973Z,25.40
2023-04-04T18:07:26.490Z,25.40
2023-04-04T18:09:53.684Z,25.40
2023-04-04T18:12:20.706Z,25.40
2023-04-04T18:14:48.620Z,25.40
2023-04-04T18:17:15.794Z,25.20
2023-04-04T18:19:42.824Z,25.20
2023-04-04T18:22:09.973Z,25.20
2023-04-04T18:24:37.572Z,25.20
2023-04-04T18:27:04.924Z,25.20
2023-04-04T18:29:32.656Z,25.20
2023-04-04T18:32:03.851Z,25.20
2023-04-04T18:34:31.413Z,25.20
2023-04-04T18:36:58.436Z,25.10
2023-04-04T18:39:26.079Z,25.10
2023-04-04T18:41:53.693Z,25.00
2023-04-04T18:44:22.198Z,25.00
2023-04-04T18:46:49.256Z,25.00
2023-04-04T18:49:16.400Z,25.00
2023-04-04T18:51:43.471Z,24.90
2023-04-04T18:54:10.524Z,24.90
2023-04-04T18:56:38.843Z,24.90
2023-04-04T18:59:06.158Z,24.90
2023-04-04T19:01:35.892Z,24.80
2023-04-04T19:04:04.412Z,24.70
2023-04-04T19:06:33.283Z,24.70
2023-04-04T19:09:04.331Z,24.70
2023-04-04T19:11:31.968Z,24.70
2023-04-04T19:14:00.247Z,24.60
2023-04-04T19:16:27.341Z,24.60
2023-04-04T19:18:54.571Z,24.50
2023-04-04T19:21:21.904Z,24.50
2023-04-04T19:23:49.246Z,24.50
2023-04-04T19:26:18.284Z,24.50
2023-04-04T19:28:46.637Z,24.40
2023-04-04T19:31:30.097Z,24.40
2023-04-04T19:33:57.528Z,24.40
2023-04-04T19:36:26.307Z,24.40
2023-04-04T19:38:54.818Z,24.30
2023-04-04T19:41:38.466Z,24.30
2023-04-04T19:44:12.688Z,24.20
2023-04-04T19:46:39.793Z,24.20
2023-04-04T19:49:12.457Z,24.20
2023-04-04T19:51:57.539Z,24.20
2023-04-04T19:54:29.686Z,24.20
2023-04-04T19:57:05.136Z,24.20
2023-04-04T20:00:10.215Z,24.10
2023-04-04T20:02:51.942Z,24.10
2023-04-04T20:05:47.774Z,24.10
2023-04-04T20:08:15.559Z,24.10
2023-04-04T20:10:43.168Z,24.00
2023-04-04T20:13:10.682Z,24.00
2023-04-04T20:15:47.564Z,24.00
2023-04-04T20:18:23.949Z,24.00
2023-04-04T20:21:31.613Z,23.90
2023-04-04T20:24:08.304Z,23.90
2023-04-04T20:26:38.666Z,23.90
2023-04-04T20:29:17.388Z,23.90
2023-04-04T20:31:59.363Z,23.80
2023-04-04T20:34:46.786Z,23.80
2023-04-04T20:37:23.591Z,23.80
2023-04-04T20:40:07.142Z,23.80
2023-04-04T20:42:40.599Z,23.80
2023-04-04T20:45:14.117Z,23.70
2023-04-04T20:47:46.869Z,23.70
2023-04-04T20:50:17.022Z,23.70
2023-04-04T20:52:53.576Z,23.70
2023-04-04T20:55:25.448Z,23.70
2023-04-04T20:57:57.379Z,23.60
2023-04-04T21:00:31.586Z,23.60
2023-04-04T21:03:11.125Z,23.70
2023-04-04T21:05:40.711Z,23.60
2023-04-04T21:08:37.919Z,23.60
2023-04-04T21:11:06.830Z,23.60
2023-04-04T21:13:42.175Z,23.60
2023-04-04T21:16:17.157Z,23.60
2023-04-04T21:18:45.382Z,23.50
2023-04-04T21:21:18.652Z,23.50
2023-04-04T21:23:55.497Z,23.50
2023-04-04T21:26:43.212Z,23.50
2023-04-04T21:29:26.615Z,23.50
2023-04-04T21:31:55.674Z,23.50
2023-04-04T21:34:26.350Z,23.50
2023-04-04T21:37:00.856Z,23.40
2023-04-04T21:39:31.410Z,23.40
2023-04-04T21:42:01.646Z,23.40
2023-04-04T21:44:30.745Z,23.40
2023-04-04T21:46:58.317Z,23.40
2023-04-04T21:49:26.353Z,23.40
2023-04-04T21:51:53.576Z,23.30
2023-04-04T21:54:21.016Z,23.30
2023-04-04T21:56:48.193Z,23.30
2023-04-04T21:59:15.283Z,23.30
2023-04-04T22:01:42.539Z,23.30
2023-04-04T22:04:10.984Z,23.20
2023-04-04T22:06:38.627Z,23.30
2023-04-04T22:09:06.676Z,23.20
2023-04-04T22:11:35.052Z,23.20
2023-04-04T22:14:07.256Z,23.20
2023-04-04T22:16:39.628Z,23.20
2023-04-04T22:19:07.825Z,23.20
2023-04-04T22:21:37.256Z,23.20
2023-04-04T22:24:06.222Z,23.00
2023-04-04T22:26:34.006Z,23.10
2023-04-04T22:29:05.380Z,23.10
2023-04-04T22:31:37.743Z,23.20
2023-04-04T22:34:06.533Z,23.10
2023-04-04T22:36:34.486Z,23.10
2023-04-04T22:39:02.097Z,23.10
2023-04-04T22:41:30.022Z,23.10
2023-04-04T22:43:58.223Z,23.00
2023-04-04T22:46:28.796Z,23.00
2023-04-04T22:49:05.800Z,23.00
2023-04-04T22:51:45.123Z,23.00
2023-04-04T22:54:16.255Z,23.00
2023-04-04T22:56:44.006Z,23.00
2023-04-04T22:59:11.462Z,23.00
2023-04-04T23:01:39.208Z,23.00
2023-04-04T23:04:06.734Z,22.90
2023-04-04T23:06:34.201Z,22.90
2023-04-04T23:09:01.997Z,22.90
2023-04-04T23:11:30.407Z,22.90
2023-04-04T23:14:00.738Z,22.90
2023-04-04T23:16:28.944Z,23.00
2023-04-04T23:18:56.259Z,22.90
2023-04-04T23:21:23.557Z,22.90
2023-04-04T23:23:50.879Z,22.80
2023-04-04T23:26:18.030Z,22.90
2023-04-04T23:28:44.997Z,22.80
2023-04-04T23:31:12.016Z,22.80
2023-04-04T23:33:39.058Z,22.80
2023-04-04T23:36:06.990Z,22.80
2023-04-04T23:38:34.216Z,22.80
2023-04-04T23:41:01.543Z,22.70
2023-04-04T23:43:28.955Z,22.70
2023-04-04T23:45:56.308Z,22.70
2023-04-04T23:48:23.454Z,22.70
2023-04-04T23:50:54.467Z,22.70
2023-04-04T23:53:21.694Z,22.70
2023-04-04T23:55:48.911Z,22.60
2023-04-04T23:58:17.000Z,22.60
